sensor_id;sensor_type;location;lat;lon;timestamp;P1;durP1;ratioP1;P2;durP2;ratioP2
9294;SDS011;4686;44.496;11.324;2024-03-25T00:00:09;6.70;;;6.00;;
9294;SDS011;4686;44.496;11.324;2024-03-25T00:02:36;6.30;;;5.80;;
9294;SDS011;4686;44.496;11.324;2024-03-25T00:05:04;6.33;;;5.73;;
9294;SDS011;4686;44.496;11.324;2024-03-25T00:07:30;6.27;;;5.67;;
9294;SDS011;4686;44.496;11.324;2024-03-25T00:09:59;6.03;;;5.20;;
9294;SDS011;4686;44.496;11.324;2024-03-25T00:12:25;6.43;;;5.70;;
9294;SDS011;4686;44.496;11.324;2024-03-25T00:14:52;6.70;;;6.10;;
9294;SDS011;4686;44.496;11.324;2024-03-25T00:17:19;6.17;;;5.57;;
9294;SDS011;4686;44.496;11.324;2024-03-25T00:19:47;6.67;;;6.00;;
9294;SDS011;4686;44.496;11.324;2024-03-25T00:22:16;6.70;;;6.10;;
9294;SDS011;4686;44.496;11.324;2024-03-25T00:24:44;6.47;;;5.87;;
9294;SDS011;4686;44.496;11.324;2024-03-25T00:27:13;6.70;;;6.00;;
9294;SDS011;4686;44.496;11.324;2024-03-25T00:29:40;6.20;;;5.70;;
9294;SDS011;4686;44.496;11.324;2024-03-25T00:32:06;5.70;;;5.30;;
9294;SDS011;4686;44.496;11.324;2024-03-25T00:34:34;7.03;;;6.33;;
9294;SDS011;4686;44.496;11.324;2024-03-25T00:37:00;6.00;;;5.53;;
9294;SDS011;4686;44.496;11.324;2024-03-25T00:39:29;8.03;;;6.20;;
9294;SDS011;4686;44.496;11.324;2024-03-25T00:41:57;7.40;;;6.37;;
9294;SDS011;4686;44.496;11.324;2024-03-25T00:44:26;7.27;;;6.60;;
9294;SDS011;4686;44.496;11.324;2024-03-25T00:46:53;6.17;;;5.67;;
9294;SDS011;4686;44.496;11.324;2024-03-25T00:49:20;6.70;;;6.10;;
9294;SDS011;4686;44.496;11.324;2024-03-25T00:51:46;9.00;;;5.90;;
9294;SDS011;4686;44.496;11.324;2024-03-25T00:54:14;5.80;;;5.40;;
9294;SDS011;4686;44.496;11.324;2024-03-25T00:56:41;6.80;;;6.20;;
9294;SDS011;4686;44.496;11.324;2024-03-25T00:59:09;6.87;;;5.67;;
9294;SDS011;4686;44.496;11.324;2024-03-25T01:01:38;6.63;;;5.97;;
9294;SDS011;4686;44.496;11.324;2024-03-25T01:04:05;8.50;;;5.90;;
9294;SDS011;4686;44.496;11.324;2024-03-25T01:06:32;6.97;;;5.90;;
9294;SDS011;4686;44.496;11.324;2024-03-25T01:09:00;6.73;;;6.20;;
9294;SDS011;4686;44.496;11.324;2024-03-25T01:11:27;6.50;;;5.60;;
9294;SDS011;4686;44.496;11.324;2024-03-25T01:13:54;7.50;;;5.90;;
9294;SDS011;4686;44.496;11.324;2024-03-25T01:16:20;7.30;;;6.60;;
9294;SDS011;4686;44.496;11.324;2024-03-25T01:18:49;6.40;;;6.00;;
9294;SDS011;4686;44.496;11.324;2024-03-25T01:21:16;6.17;;;5.77;;
9294;SDS011;4686;44.496;11.324;2024-03-25T01:23:43;6.40;;;5.90;;
9294;SDS011;4686;44.496;11.324;2024-03-25T01:26:09;7.00;;;6.50;;
9294;SDS011;4686;44.496;11.324;2024-03-25T01:28:37;6.30;;;5.80;;
9294;SDS011;4686;44.496;11.324;2024-03-25T01:31:03;6.67;;;6.13;;
9294;SDS011;4686;44.496;11.324;2024-03-25T01:33:31;6.33;;;5.83;;
9294;SDS011;4686;44.496;11.324;2024-03-25T01:35:58;8.27;;;5.60;;
9294;SDS011;4686;44.496;11.324;2024-03-25T01:38:26;5.60;;;5.20;;
9294;SDS011;4686;44.496;11.324;2024-03-25T01:40:53;5.77;;;5.37;;
9294;SDS011;4686;44.496;11.324;2024-03-25T01:43:22;6.30;;;5.80;;
9294;SDS011;4686;44.496;11.324;2024-03-25T01:45:48;6.50;;;5.90;;
9294;SDS011;4686;44.496;11.324;2024-03-25T01:48:20;5.73;;;5.33;;
9294;SDS011;4686;44.496;11.324;2024-03-25T01:50:46;6.07;;;5.40;;
9294;SDS011;4686;44.496;11.324;2024-03-25T01:53:15;5.37;;;4.87;;
9294;SDS011;4686;44.496;11.324;2024-03-25T01:55:42;6.00;;;5.47;;
9294;SDS011;4686;44.496;11.324;2024-03-25T01:58:09;5.83;;;5.23;;
9294;SDS011;4686;44.496;11.324;2024-03-25T02:00:36;6.93;;;5.37;;
9294;SDS011;4686;44.496;11.324;2024-03-25T02:03:03;6.40;;;5.80;;
9294;SDS011;4686;44.496;11.324;2024-03-25T02:05:31;5.70;;;5.30;;
9294;SDS011;4686;44.496;11.324;2024-03-25T02:07:58;6.27;;;5.77;;
9294;SDS011;4686;44.496;11.324;2024-03-25T02:10:27;5.70;;;5.10;;
9294;SDS011;4686;44.496;11.324;2024-03-25T02:12:54;5.90;;;4.90;;
9294;SDS011;4686;44.496;11.324;2024-03-25T02:15:21;5.77;;;5.27;;
9294;SDS011;4686;44.496;11.324;2024-03-25T02:17:48;7.33;;;5.23;;
9294;SDS011;4686;44.496;11.324;2024-03-25T02:20:15;6.83;;;6.23;;
9294;SDS011;4686;44.496;11.324;2024-03-25T02:22:43;6.80;;;5.10;;
9294;SDS011;4686;44.496;11.324;2024-03-25T02:25:09;5.60;;;5.10;;
9294;SDS011;4686;44.496;11.324;2024-03-25T02:27:38;5.73;;;5.30;;
9294;SDS011;4686;44.496;11.324;2024-03-25T02:30:05;5.50;;;5.10;;
9294;SDS011;4686;44.496;11.324;2024-03-25T02:32:33;5.80;;;5.40;;
9294;SDS011;4686;44.496;11.324;2024-03-25T02:34:59;6.60;;;5.93;;
9294;SDS011;4686;44.496;11.324;2024-03-25T02:37:28;5.47;;;4.97;;
9294;SDS011;4686;44.496;11.324;2024-03-25T02:39:57;5.97;;;5.40;;
9294;SDS011;4686;44.496;11.324;2024-03-25T02:42:24;5.80;;;5.30;;
9294;SDS011;4686;44.496;11.324;2024-03-25T02:44:53;6.13;;;5.63;;
9294;SDS011;4686;44.496;11.324;2024-03-25T02:47:20;6.30;;;5.80;;
9294;SDS011;4686;44.496;11.324;2024-03-25T02:49:47;9.13;;;6.03;;
9294;SDS011;4686;44.496;11.324;2024-03-25T02:52:14;6.43;;;5.83;;
9294;SDS011;4686;44.496;11.324;2024-03-25T02:54:41;5.90;;;5.40;;
9294;SDS011;4686;44.496;11.324;2024-03-25T02:57:08;6.37;;;5.77;;
9294;SDS011;4686;44.496;11.324;2024-03-25T02:59:35;5.80;;;5.40;;
9294;SDS011;4686;44.496;11.324;2024-03-25T03:02:04;6.30;;;5.70;;
9294;SDS011;4686;44.496;11.324;2024-03-25T03:04:30;6.17;;;5.57;;
9294;SDS011;4686;44.496;11.324;2024-03-25T03:06:57;6.27;;;5.80;;
9294;SDS011;4686;44.496;11.324;2024-03-25T03:09:24;6.50;;;6.10;;
9294;SDS011;4686;44.496;11.324;2024-03-25T03:11:51;8.17;;;6.30;;
9294;SDS011;4686;44.496;11.324;2024-03-25T03:14:18;6.27;;;5.77;;
9294;SDS011;4686;44.496;11.324;2024-03-25T03:16:45;9.97;;;5.87;;
9294;SDS011;4686;44.496;11.324;2024-03-25T03:19:13;7.20;;;6.10;;
9294;SDS011;4686;44.496;11.324;2024-03-25T03:21:40;6.03;;;5.63;;
9294;SDS011;4686;44.496;11.324;2024-03-25T03:24:07;6.03;;;5.43;;
9294;SDS011;4686;44.496;11.324;2024-03-25T03:26:34;5.93;;;5.53;;
9294;SDS011;4686;44.496;11.324;2024-03-25T03:29:01;6.40;;;6.00;;
9294;SDS011;4686;44.496;11.324;2024-03-25T03:31:28;6.50;;;5.90;;
9294;SDS011;4686;44.496;11.324;2024-03-25T03:33:55;6.60;;;6.00;;
9294;SDS011;4686;44.496;11.324;2024-03-25T03:36:24;7.47;;;6.33;;
9294;SDS011;4686;44.496;11.324;2024-03-25T03:38:50;5.83;;;5.40;;
9294;SDS011;4686;44.496;11.324;2024-03-25T03:41:18;10.50;;;5.97;;
9294;SDS011;4686;44.496;11.324;2024-03-25T03:43:44;5.87;;;5.47;;
9294;SDS011;4686;44.496;11.324;2024-03-25T03:46:11;6.13;;;5.43;;
9294;SDS011;4686;44.496;11.324;2024-03-25T03:48:38;6.20;;;5.70;;
9294;SDS011;4686;44.496;11.324;2024-03-25T03:51:05;5.87;;;5.37;;
9294;SDS011;4686;44.496;11.324;2024-03-25T03:53:33;6.10;;;5.60;;
9294;SDS011;4686;44.496;11.324;2024-03-25T03:56:01;6.27;;;5.67;;
9294;SDS011;4686;44.496;11.324;2024-03-25T03:58:29;7.30;;;5.93;;
9294;SDS011;4686;44.496;11.324;2024-03-25T04:00:56;6.30;;;5.70;;
9294;SDS011;4686;44.496;11.324;2024-03-25T04:03:22;6.10;;;5.70;;
9294;SDS011;4686;44.496;11.324;2024-03-25T04:05:50;6.47;;;6.07;;
9294;SDS011;4686;44.496;11.324;2024-03-25T04:08:16;6.67;;;5.70;;
9294;SDS011;4686;44.496;11.324;2024-03-25T04:10:45;6.23;;;5.60;;
9294;SDS011;4686;44.496;11.324;2024-03-25T04:13:12;6.70;;;6.07;;
9294;SDS011;4686;44.496;11.324;2024-03-25T04:15:39;6.00;;;5.60;;
9294;SDS011;4686;44.496;11.324;2024-03-25T04:18:07;5.60;;;5.20;;
9294;SDS011;4686;44.496;11.324;2024-03-25T04:20:37;7.07;;;5.10;;
9294;SDS011;4686;44.496;11.324;2024-03-25T04:23:04;5.63;;;5.23;;
9294;SDS011;4686;44.496;11.324;2024-03-25T04:25:32;5.80;;;5.30;;
9294;SDS011;4686;44.496;11.324;2024-03-25T04:28:00;5.63;;;5.27;;
9294;SDS011;4686;44.496;11.324;2024-03-25T04:30:28;6.13;;;5.70;;
9294;SDS011;4686;44.496;11.324;2024-03-25T04:32:54;5.77;;;5.37;;
9294;SDS011;4686;44.496;11.324;2024-03-25T04:35:22;11.73;;;5.17;;
9294;SDS011;4686;44.496;11.324;2024-03-25T04:37:48;7.33;;;5.20;;
9294;SDS011;4686;44.496;11.324;2024-03-25T04:40:14;5.30;;;4.90;;
9294;SDS011;4686;44.496;11.324;2024-03-25T04:42:41;6.23;;;5.77;;
9294;SDS011;4686;44.496;11.324;2024-03-25T04:45:09;5.83;;;5.53;;
9294;SDS011;4686;44.496;11.324;2024-03-25T04:47:35;7.70;;;5.87;;
9294;SDS011;4686;44.496;11.324;2024-03-25T04:50:01;6.63;;;6.00;;
9294;SDS011;4686;44.496;11.324;2024-03-25T04:52:28;6.47;;;5.97;;
9294;SDS011;4686;44.496;11.324;2024-03-25T04:54:54;5.90;;;5.50;;
9294;SDS011;4686;44.496;11.324;2024-03-25T04:57:21;5.70;;;5.30;;
9294;SDS011;4686;44.496;11.324;2024-03-25T04:59:47;6.90;;;6.10;;
9294;SDS011;4686;44.496;11.324;2024-03-25T05:02:15;6.40;;;6.00;;
9294;SDS011;4686;44.496;11.324;2024-03-25T05:04:41;6.13;;;5.73;;
9294;SDS011;4686;44.496;11.324;2024-03-25T05:07:09;9.90;;;4.97;;
9294;SDS011;4686;44.496;11.324;2024-03-25T05:09:36;5.97;;;5.50;;
9294;SDS011;4686;44.496;11.324;2024-03-25T05:12:02;5.10;;;4.90;;
9294;SDS011;4686;44.496;11.324;2024-03-25T05:14:29;6.03;;;5.63;;
9294;SDS011;4686;44.496;11.324;2024-03-25T05:16:56;6.37;;;5.40;;
9294;SDS011;4686;44.496;11.324;2024-03-25T05:19:23;8.07;;;5.10;;
9294;SDS011;4686;44.496;11.324;2024-03-25T05:21:50;5.90;;;5.40;;
9294;SDS011;4686;44.496;11.324;2024-03-25T05:24:16;6.17;;;5.60;;
9294;SDS011;4686;44.496;11.324;2024-03-25T05:26:43;5.77;;;5.30;;
9294;SDS011;4686;44.496;11.324;2024-03-25T05:29:09;5.73;;;5.20;;
9294;SDS011;4686;44.496;11.324;2024-03-25T05:31:35;5.33;;;5.00;;
9294;SDS011;4686;44.496;11.324;2024-03-25T05:34:02;5.53;;;5.10;;
9294;SDS011;4686;44.496;11.324;2024-03-25T05:36:29;5.70;;;5.30;;
9294;SDS011;4686;44.496;11.324;2024-03-25T05:38:56;5.50;;;5.17;;
9294;SDS011;4686;44.496;11.324;2024-03-25T05:41:22;6.07;;;5.50;;
9294;SDS011;4686;44.496;11.324;2024-03-25T05:43:48;5.40;;;5.10;;
9294;SDS011;4686;44.496;11.324;2024-03-25T05:46:15;5.63;;;5.33;;
9294;SDS011;4686;44.496;11.324;2024-03-25T05:48:41;5.57;;;5.20;;
9294;SDS011;4686;44.496;11.324;2024-03-25T05:51:08;6.57;;;5.90;;
9294;SDS011;4686;44.496;11.324;2024-03-25T05:53:36;7.47;;;6.17;;
9294;SDS011;4686;44.496;11.324;2024-03-25T05:56:03;5.67;;;5.37;;
9294;SDS011;4686;44.496;11.324;2024-03-25T05:58:29;5.53;;;5.13;;
9294;SDS011;4686;44.496;11.324;2024-03-25T06:00:55;5.60;;;5.30;;
9294;SDS011;4686;44.496;11.324;2024-03-25T06:03:22;5.40;;;5.00;;
9294;SDS011;4686;44.496;11.324;2024-03-25T06:05:51;5.87;;;5.47;;
9294;SDS011;4686;44.496;11.324;2024-03-25T06:08:18;5.50;;;5.17;;
9294;SDS011;4686;44.496;11.324;2024-03-25T06:10:47;5.00;;;4.80;;
9294;SDS011;4686;44.496;11.324;2024-03-25T06:13:13;5.03;;;4.63;;
9294;SDS011;4686;44.496;11.324;2024-03-25T06:15:39;5.67;;;5.27;;
9294;SDS011;4686;44.496;11.324;2024-03-25T06:18:06;5.87;;;5.27;;
9294;SDS011;4686;44.496;11.324;2024-03-25T06:20:33;5.53;;;5.00;;
9294;SDS011;4686;44.496;11.324;2024-03-25T06:23:00;5.80;;;5.40;;
9294;SDS011;4686;44.496;11.324;2024-03-25T06:25:28;5.50;;;5.13;;
9294;SDS011;4686;44.496;11.324;2024-03-25T06:27:56;5.37;;;4.97;;
9294;SDS011;4686;44.496;11.324;2024-03-25T06:30:25;5.80;;;5.30;;
9294;SDS011;4686;44.496;11.324;2024-03-25T06:33:10;4.90;;;4.50;;
9294;SDS011;4686;44.496;11.324;2024-03-25T06:35:55;5.33;;;4.83;;
9294;SDS011;4686;44.496;11.324;2024-03-25T06:38:22;4.57;;;4.30;;
9294;SDS011;4686;44.496;11.324;2024-03-25T06:40:51;4.47;;;4.17;;
9294;SDS011;4686;44.496;11.324;2024-03-25T06:43:19;5.50;;;5.10;;
9294;SDS011;4686;44.496;11.324;2024-03-25T06:45:46;5.17;;;4.87;;
9294;SDS011;4686;44.496;11.324;2024-03-25T06:48:20;7.63;;;4.40;;
9294;SDS011;4686;44.496;11.324;2024-03-25T06:50:52;5.50;;;4.83;;
9294;SDS011;4686;44.496;11.324;2024-03-25T06:53:24;5.40;;;5.00;;
9294;SDS011;4686;44.496;11.324;2024-03-25T06:55:52;5.90;;;4.60;;
9294;SDS011;4686;44.496;11.324;2024-03-25T06:58:20;5.97;;;4.90;;
9294;SDS011;4686;44.496;11.324;2024-03-25T07:00:47;5.47;;;4.97;;
9294;SDS011;4686;44.496;11.324;2024-03-25T07:03:14;4.77;;;4.47;;
9294;SDS011;4686;44.496;11.324;2024-03-25T07:05:40;5.13;;;4.83;;
9294;SDS011;4686;44.496;11.324;2024-03-25T07:08:07;5.90;;;4.50;;
9294;SDS011;4686;44.496;11.324;2024-03-25T07:10:33;4.40;;;4.10;;
9294;SDS011;4686;44.496;11.324;2024-03-25T07:13:00;5.47;;;4.97;;
9294;SDS011;4686;44.496;11.324;2024-03-25T07:15:28;4.83;;;4.43;;
9294;SDS011;4686;44.496;11.324;2024-03-25T07:17:55;6.50;;;4.80;;
9294;SDS011;4686;44.496;11.324;2024-03-25T07:20:22;4.40;;;4.10;;
9294;SDS011;4686;44.496;11.324;2024-03-25T07:22:48;5.40;;;4.90;;
9294;SDS011;4686;44.496;11.324;2024-03-25T07:25:15;6.13;;;4.10;;
9294;SDS011;4686;44.496;11.324;2024-03-25T07:27:42;4.47;;;4.13;;
9294;SDS011;4686;44.496;11.324;2024-03-25T07:30:08;4.80;;;4.60;;
9294;SDS011;4686;44.496;11.324;2024-03-25T07:32:36;5.00;;;4.50;;
9294;SDS011;4686;44.496;11.324;2024-03-25T07:35:03;4.70;;;4.30;;
9294;SDS011;4686;44.496;11.324;2024-03-25T07:37:30;4.47;;;4.17;;
9294;SDS011;4686;44.496;11.324;2024-03-25T07:39:56;4.33;;;4.07;;
9294;SDS011;4686;44.496;11.324;2024-03-25T07:42:23;5.70;;;3.87;;
9294;SDS011;4686;44.496;11.324;2024-03-25T07:44:49;4.10;;;3.90;;
9294;SDS011;4686;44.496;11.324;2024-03-25T07:47:16;4.43;;;4.10;;
9294;SDS011;4686;44.496;11.324;2024-03-25T07:49:48;5.20;;;4.80;;
9294;SDS011;4686;44.496;11.324;2024-03-25T07:52:16;4.53;;;3.80;;
9294;SDS011;4686;44.496;11.324;2024-03-25T07:54:45;3.80;;;3.60;;
9294;SDS011;4686;44.496;11.324;2024-03-25T07:57:15;4.50;;;4.10;;
9294;SDS011;4686;44.496;11.324;2024-03-25T07:59:43;3.70;;;3.60;;
9294;SDS011;4686;44.496;11.324;2024-03-25T08:02:10;3.70;;;3.50;;
9294;SDS011;4686;44.496;11.324;2024-03-25T08:04:42;9.27;;;4.07;;
9294;SDS011;4686;44.496;11.324;2024-03-25T08:07:10;16.57;;;4.10;;
9294;SDS011;4686;44.496;11.324;2024-03-25T08:09:39;4.03;;;3.73;;
9294;SDS011;4686;44.496;11.324;2024-03-25T08:12:07;3.50;;;3.40;;
9294;SDS011;4686;44.496;11.324;2024-03-25T08:14:34;3.67;;;3.47;;
9294;SDS011;4686;44.496;11.324;2024-03-25T08:17:03;3.90;;;3.70;;
9294;SDS011;4686;44.496;11.324;2024-03-25T08:19:30;3.63;;;3.33;;
9294;SDS011;4686;44.496;11.324;2024-03-25T08:21:56;3.60;;;3.40;;
9294;SDS011;4686;44.496;11.324;2024-03-25T08:24:24;7.30;;;3.70;;
9294;SDS011;4686;44.496;11.324;2024-03-25T08:26:51;3.80;;;3.50;;
9294;SDS011;4686;44.496;11.324;2024-03-25T08:29:17;3.50;;;3.20;;
9294;SDS011;4686;44.496;11.324;2024-03-25T08:31:44;3.43;;;3.13;;
9294;SDS011;4686;44.496;11.324;2024-03-25T08:34:10;4.10;;;3.47;;
9294;SDS011;4686;44.496;11.324;2024-03-25T08:36:37;4.23;;;3.80;;
9294;SDS011;4686;44.496;11.324;2024-03-25T08:39:04;5.13;;;4.00;;
9294;SDS011;4686;44.496;11.324;2024-03-25T08:41:31;5.30;;;3.90;;
9294;SDS011;4686;44.496;11.324;2024-03-25T08:43:58;6.20;;;4.60;;
9294;SDS011;4686;44.496;11.324;2024-03-25T08:46:24;4.70;;;4.20;;
9294;SDS011;4686;44.496;11.324;2024-03-25T08:48:51;4.73;;;4.33;;
9294;SDS011;4686;44.496;11.324;2024-03-25T08:51:17;5.20;;;3.97;;
9294;SDS011;4686;44.496;11.324;2024-03-25T08:53:44;4.57;;;4.10;;
9294;SDS011;4686;44.496;11.324;2024-03-25T08:56:10;4.60;;;4.30;;
9294;SDS011;4686;44.496;11.324;2024-03-25T08:58:38;3.80;;;3.57;;
9294;SDS011;4686;44.496;11.324;2024-03-25T09:01:05;6.23;;;3.97;;
9294;SDS011;4686;44.496;11.324;2024-03-25T09:03:32;4.57;;;4.17;;
9294;SDS011;4686;44.496;11.324;2024-03-25T09:05:58;4.43;;;4.23;;
9294;SDS011;4686;44.496;11.324;2024-03-25T09:08:25;4.70;;;4.30;;
9294;SDS011;4686;44.496;11.324;2024-03-25T09:10:51;4.40;;;4.00;;
9294;SDS011;4686;44.496;11.324;2024-03-25T09:13:35;4.40;;;4.00;;
9294;SDS011;4686;44.496;11.324;2024-03-25T09:16:04;4.43;;;4.07;;
9294;SDS011;4686;44.496;11.324;2024-03-25T09:18:31;7.37;;;4.50;;
9294;SDS011;4686;44.496;11.324;2024-03-25T09:20:57;7.40;;;3.90;;
9294;SDS011;4686;44.496;11.324;2024-03-25T09:23:24;4.67;;;4.27;;
9294;SDS011;4686;44.496;11.324;2024-03-25T09:25:50;4.07;;;3.77;;
9294;SDS011;4686;44.496;11.324;2024-03-25T09:28:17;4.33;;;3.80;;
9294;SDS011;4686;44.496;11.324;2024-03-25T09:30:43;4.53;;;4.17;;
9294;SDS011;4686;44.496;11.324;2024-03-25T09:33:11;7.40;;;4.20;;
9294;SDS011;4686;44.496;11.324;2024-03-25T09:35:38;9.47;;;3.87;;
9294;SDS011;4686;44.496;11.324;2024-03-25T09:38:04;4.93;;;4.60;;
9294;SDS011;4686;44.496;11.324;2024-03-25T09:40:31;4.00;;;3.80;;
9294;SDS011;4686;44.496;11.324;2024-03-25T09:42:57;4.30;;;4.00;;
9294;SDS011;4686;44.496;11.324;2024-03-25T09:45:24;5.40;;;4.90;;
9294;SDS011;4686;44.496;11.324;2024-03-25T09:47:51;4.63;;;4.33;;
9294;SDS011;4686;44.496;11.324;2024-03-25T09:50:19;5.90;;;5.37;;
9294;SDS011;4686;44.496;11.324;2024-03-25T09:52:46;5.17;;;4.77;;
9294;SDS011;4686;44.496;11.324;2024-03-25T09:55:13;5.70;;;5.20;;
9294;SDS011;4686;44.496;11.324;2024-03-25T09:57:40;5.80;;;5.40;;
9294;SDS011;4686;44.496;11.324;2024-03-25T10:00:07;6.00;;;5.40;;
9294;SDS011;4686;44.496;11.324;2024-03-25T10:02:34;14.63;;;5.30;;
9294;SDS011;4686;44.496;11.324;2024-03-25T10:05:02;5.10;;;4.70;;
9294;SDS011;4686;44.496;11.324;2024-03-25T10:07:30;5.33;;;4.83;;
9294;SDS011;4686;44.496;11.324;2024-03-25T10:09:58;5.20;;;4.70;;
9294;SDS011;4686;44.496;11.324;2024-03-25T10:12:25;4.57;;;4.17;;
9294;SDS011;4686;44.496;11.324;2024-03-25T10:14:52;5.73;;;5.03;;
9294;SDS011;4686;44.496;11.324;2024-03-25T10:17:18;5.13;;;4.63;;
9294;SDS011;4686;44.496;11.324;2024-03-25T10:19:45;5.00;;;4.70;;
9294;SDS011;4686;44.496;11.324;2024-03-25T10:22:11;5.73;;;4.50;;
9294;SDS011;4686;44.496;11.324;2024-03-25T10:24:41;6.40;;;5.60;;
9294;SDS011;4686;44.496;11.324;2024-03-25T10:27:10;6.90;;;5.80;;
9294;SDS011;4686;44.496;11.324;2024-03-25T10:29:37;6.40;;;5.70;;
9294;SDS011;4686;44.496;11.324;2024-03-25T10:32:03;6.50;;;6.00;;
9294;SDS011;4686;44.496;11.324;2024-03-25T10:34:39;7.03;;;6.43;;
9294;SDS011;4686;44.496;11.324;2024-03-25T10:37:05;6.40;;;5.90;;
9294;SDS011;4686;44.496;11.324;2024-03-25T10:39:38;8.23;;;6.07;;
9294;SDS011;4686;44.496;11.324;2024-03-25T10:42:08;8.17;;;7.37;;
9294;SDS011;4686;44.496;11.324;2024-03-25T10:44:38;9.90;;;6.47;;
9294;SDS011;4686;44.496;11.324;2024-03-25T10:47:05;7.40;;;6.80;;
9294;SDS011;4686;44.496;11.324;2024-03-25T10:49:32;8.93;;;6.87;;
9294;SDS011;4686;44.496;11.324;2024-03-25T10:52:00;8.40;;;6.90;;
9294;SDS011;4686;44.496;11.324;2024-03-25T10:54:27;8.93;;;6.70;;
9294;SDS011;4686;44.496;11.324;2024-03-25T10:56:55;7.00;;;6.30;;
9294;SDS011;4686;44.496;11.324;2024-03-25T10:59:24;8.50;;;6.60;;
9294;SDS011;4686;44.496;11.324;2024-03-25T11:01:50;7.33;;;6.73;;
9294;SDS011;4686;44.496;11.324;2024-03-25T11:04:17;7.20;;;6.53;;
9294;SDS011;4686;44.496;11.324;2024-03-25T11:06:43;7.50;;;6.73;;
9294;SDS011;4686;44.496;11.324;2024-03-25T11:09:10;9.00;;;6.50;;
9294;SDS011;4686;44.496;11.324;2024-03-25T11:11:36;8.47;;;7.07;;
9294;SDS011;4686;44.496;11.324;2024-03-25T11:14:02;11.83;;;7.23;;
9294;SDS011;4686;44.496;11.324;2024-03-25T11:16:30;9.77;;;6.73;;
9294;SDS011;4686;44.496;11.324;2024-03-25T11:19:00;7.27;;;6.57;;
9294;SDS011;4686;44.496;11.324;2024-03-25T11:21:26;10.80;;;7.30;;
9294;SDS011;4686;44.496;11.324;2024-03-25T11:23:53;9.90;;;6.30;;
9294;SDS011;4686;44.496;11.324;2024-03-25T11:26:20;7.90;;;7.07;;
9294;SDS011;4686;44.496;11.324;2024-03-25T11:28:47;6.67;;;6.07;;
9294;SDS011;4686;44.496;11.324;2024-03-25T11:31:13;9.70;;;6.30;;
9294;SDS011;4686;44.496;11.324;2024-03-25T11:33:41;8.50;;;6.17;;
9294;SDS011;4686;44.496;11.324;2024-03-25T11:36:09;8.63;;;6.30;;
9294;SDS011;4686;44.496;11.324;2024-03-25T11:38:35;6.87;;;6.37;;
9294;SDS011;4686;44.496;11.324;2024-03-25T11:41:01;6.20;;;5.60;;
9294;SDS011;4686;44.496;11.324;2024-03-25T11:43:28;9.53;;;5.50;;
9294;SDS011;4686;44.496;11.324;2024-03-25T11:45:55;7.97;;;7.17;;
9294;SDS011;4686;44.496;11.324;2024-03-25T11:48:21;9.87;;;6.90;;
9294;SDS011;4686;44.496;11.324;2024-03-25T11:50:49;8.70;;;7.47;;
9294;SDS011;4686;44.496;11.324;2024-03-25T11:53:15;7.87;;;7.17;;
9294;SDS011;4686;44.496;11.324;2024-03-25T11:55:45;7.57;;;6.70;;
9294;SDS011;4686;44.496;11.324;2024-03-25T11:58:12;9.50;;;7.53;;
9294;SDS011;4686;44.496;11.324;2024-03-25T12:00:42;7.40;;;6.80;;
9294;SDS011;4686;44.496;11.324;2024-03-25T12:03:09;8.33;;;7.63;;
9294;SDS011;4686;44.496;11.324;2024-03-25T12:05:36;7.87;;;7.10;;
9294;SDS011;4686;44.496;11.324;2024-03-25T12:08:04;11.40;;;6.90;;
9294;SDS011;4686;44.496;11.324;2024-03-25T12:10:31;7.90;;;7.23;;
9294;SDS011;4686;44.496;11.324;2024-03-25T12:13:16;10.80;;;7.60;;
9294;SDS011;4686;44.496;11.324;2024-03-25T12:15:42;7.90;;;7.10;;
9294;SDS011;4686;44.496;11.324;2024-03-25T12:18:09;6.93;;;6.33;;
9294;SDS011;4686;44.496;11.324;2024-03-25T12:20:35;7.17;;;6.20;;
9294;SDS011;4686;44.496;11.324;2024-03-25T12:23:03;16.00;;;6.23;;
9294;SDS011;4686;44.496;11.324;2024-03-25T12:25:30;6.57;;;6.00;;
9294;SDS011;4686;44.496;11.324;2024-03-25T12:27:58;12.33;;;6.00;;
9294;SDS011;4686;44.496;11.324;2024-03-25T12:30:25;9.83;;;6.67;;
9294;SDS011;4686;44.496;11.324;2024-03-25T12:32:51;6.90;;;6.40;;
9294;SDS011;4686;44.496;11.324;2024-03-25T12:35:19;9.07;;;8.17;;
9294;SDS011;4686;44.496;11.324;2024-03-25T12:37:45;9.50;;;7.80;;
9294;SDS011;4686;44.496;11.324;2024-03-25T12:40:25;8.17;;;7.10;;
9294;SDS011;4686;44.496;11.324;2024-03-25T12:42:52;14.73;;;6.90;;
9294;SDS011;4686;44.496;11.324;2024-03-25T12:45:20;9.33;;;7.83;;
9294;SDS011;4686;44.496;11.324;2024-03-25T12:47:47;9.00;;;8.20;;
9294;SDS011;4686;44.496;11.324;2024-03-25T12:50:14;8.37;;;7.50;;
9294;SDS011;4686;44.496;11.324;2024-03-25T12:52:41;7.50;;;6.83;;
9294;SDS011;4686;44.496;11.324;2024-03-25T12:55:07;6.97;;;6.37;;
9294;SDS011;4686;44.496;11.324;2024-03-25T12:57:40;8.17;;;7.47;;
9294;SDS011;4686;44.496;11.324;2024-03-25T13:00:07;8.30;;;7.50;;
9294;SDS011;4686;44.496;11.324;2024-03-25T13:02:34;8.40;;;7.50;;
9294;SDS011;4686;44.496;11.324;2024-03-25T13:05:01;9.60;;;8.77;;
9294;SDS011;4686;44.496;11.324;2024-03-25T13:07:30;21.23;;;16.80;;
9294;SDS011;4686;44.496;11.324;2024-03-25T13:10:02;14.23;;;11.93;;
9294;SDS011;4686;44.496;11.324;2024-03-25T13:12:30;10.97;;;9.97;;
9294;SDS011;4686;44.496;11.324;2024-03-25T13:15:01;29.90;;;17.07;;
9294;SDS011;4686;44.496;11.324;2024-03-25T13:17:29;9.43;;;8.17;;
9294;SDS011;4686;44.496;11.324;2024-03-25T13:19:57;7.93;;;7.33;;
9294;SDS011;4686;44.496;11.324;2024-03-25T13:22:24;9.73;;;7.30;;
9294;SDS011;4686;44.496;11.324;2024-03-25T13:24:51;7.90;;;7.30;;
9294;SDS011;4686;44.496;11.324;2024-03-25T13:27:17;8.17;;;6.83;;
9294;SDS011;4686;44.496;11.324;2024-03-25T13:29:44;8.60;;;7.90;;
9294;SDS011;4686;44.496;11.324;2024-03-25T13:32:12;10.97;;;9.33;;
9294;SDS011;4686;44.496;11.324;2024-03-25T13:34:39;11.17;;;7.03;;
9294;SDS011;4686;44.496;11.324;2024-03-25T13:37:05;7.87;;;7.27;;
9294;SDS011;4686;44.496;11.324;2024-03-25T13:39:32;9.20;;;8.30;;
9294;SDS011;4686;44.496;11.324;2024-03-25T13:41:58;8.13;;;7.43;;
9294;SDS011;4686;44.496;11.324;2024-03-25T13:44:25;10.33;;;8.47;;
9294;SDS011;4686;44.496;11.324;2024-03-25T13:46:51;8.30;;;7.40;;
9294;SDS011;4686;44.496;11.324;2024-03-25T13:49:19;19.03;;;10.13;;
9294;SDS011;4686;44.496;11.324;2024-03-25T13:51:48;10.37;;;9.30;;
9294;SDS011;4686;44.496;11.324;2024-03-25T13:54:14;12.40;;;7.80;;
9294;SDS011;4686;44.496;11.324;2024-03-25T13:56:41;7.80;;;7.10;;
9294;SDS011;4686;44.496;11.324;2024-03-25T13:59:08;8.87;;;7.77;;
9294;SDS011;4686;44.496;11.324;2024-03-25T14:01:34;8.80;;;8.00;;
9294;SDS011;4686;44.496;11.324;2024-03-25T14:04:01;9.20;;;8.30;;
9294;SDS011;4686;44.496;11.324;2024-03-25T14:06:29;9.23;;;8.33;;
9294;SDS011;4686;44.496;11.324;2024-03-25T14:08:55;11.10;;;8.50;;
9294;SDS011;4686;44.496;11.324;2024-03-25T14:11:22;15.30;;;10.33;;
9294;SDS011;4686;44.496;11.324;2024-03-25T14:13:48;8.67;;;7.10;;
9294;SDS011;4686;44.496;11.324;2024-03-25T14:16:14;10.33;;;9.33;;
9294;SDS011;4686;44.496;11.324;2024-03-25T14:18:41;9.43;;;8.50;;
9294;SDS011;4686;44.496;11.324;2024-03-25T14:21:07;9.00;;;7.60;;
9294;SDS011;4686;44.496;11.324;2024-03-25T14:23:35;7.73;;;7.00;;
9294;SDS011;4686;44.496;11.324;2024-03-25T14:26:02;8.60;;;7.80;;
9294;SDS011;4686;44.496;11.324;2024-03-25T14:28:34;9.57;;;7.50;;
9294;SDS011;4686;44.496;11.324;2024-03-25T14:31:01;16.90;;;7.97;;
9294;SDS011;4686;44.496;11.324;2024-03-25T14:33:27;9.10;;;7.50;;
9294;SDS011;4686;44.496;11.324;2024-03-25T14:35:54;8.77;;;7.20;;
9294;SDS011;4686;44.496;11.324;2024-03-25T14:38:20;6.30;;;5.70;;
9294;SDS011;4686;44.496;11.324;2024-03-25T14:40:49;7.37;;;6.47;;
9294;SDS011;4686;44.496;11.324;2024-03-25T14:43:16;11.83;;;6.10;;
9294;SDS011;4686;44.496;11.324;2024-03-25T14:45:43;9.13;;;7.70;;
9294;SDS011;4686;44.496;11.324;2024-03-25T14:48:09;6.60;;;6.07;;
9294;SDS011;4686;44.496;11.324;2024-03-25T14:50:38;9.87;;;7.20;;
9294;SDS011;4686;44.496;11.324;2024-03-25T14:53:05;7.90;;;7.20;;
9294;SDS011;4686;44.496;11.324;2024-03-25T14:55:31;8.27;;;7.03;;
9294;SDS011;4686;44.496;11.324;2024-03-25T14:57:59;6.30;;;5.70;;
9294;SDS011;4686;44.496;11.324;2024-03-25T15:00:26;6.50;;;5.67;;